createdAt,value
2019-05-22T00:00:49.545Z,21.37
2019-05-22T00:03:34.340Z,21.87
2019-05-22T00:06:09.618Z,21.70
2019-05-22T00:08:43.817Z,22.62
2019-05-22T00:11:19.910Z,21.40
2019-05-22T00:13:55.475Z,22.58
2019-05-22T00:16:30.870Z,22.65
2019-05-22T00:19:14.697Z,21.23
2019-05-22T00:22:09.856Z,21.87
2019-05-22T00:24:46.655Z,20.08
2019-05-22T00:27:21.128Z,21.00
2019-05-22T00:29:56.134Z,21.00
2019-05-22T00:32:30.671Z,19.85
2019-05-22T00:35:06.299Z,20.35
2019-05-22T00:37:42.536Z,21.05
2019-05-22T00:40:18.227Z,21.77
2019-05-22T00:43:03.287Z,20.32
2019-05-22T00:45:31.349Z,21.50
2019-05-22T00:48:07.529Z,21.10
2019-05-22T00:51:02.848Z,21.68
2019-05-22T00:53:55.593Z,21.95
2019-05-22T00:56:31.754Z,21.45
2019-05-22T00:59:21.627Z,21.17
2019-05-22T01:02:06.193Z,21.42
2019-05-22T01:04:43.095Z,21.65
2019-05-22T01:07:17.973Z,21.48
2019-05-22T01:09:59.560Z,20.35
2019-05-22T01:12:36.466Z,20.17
2019-05-22T01:15:12.041Z,20.85
2019-05-22T01:17:47.622Z,20.23
2019-05-22T01:20:26.699Z,19.95
2019-05-22T01:23:02.548Z,19.48
2019-05-22T01:25:38.907Z,20.15
2019-05-22T01:28:14.355Z,20.68
2019-05-22T01:30:51.076Z,19.73
2019-05-22T01:33:43.889Z,20.05
2019-05-22T01:36:20.876Z,20.05
2019-05-22T01:38:59.015Z,21.80
2019-05-22T01:41:36.125Z,20.88
2019-05-22T01:44:11.620Z,20.90
2019-05-22T01:46:46.054Z,21.17
2019-05-22T01:49:22.213Z,21.87
2019-05-22T01:51:56.460Z,21.52
2019-05-22T01:54:31.003Z,22.50
2019-05-22T01:57:04.466Z,22.02
2019-05-22T01:59:39.316Z,22.85
2019-05-22T02:02:14.675Z,23.07
2019-05-22T02:04:48.767Z,21.52
2019-05-22T02:09:56.956Z,21.48
2019-05-22T02:12:35.277Z,21.42
2019-05-22T02:15:09.280Z,21.60
2019-05-22T02:17:43.779Z,22.32
2019-05-22T02:20:18.038Z,20.77
2019-05-22T02:22:52.073Z,20.85
2019-05-22T02:28:01.042Z,22.22
2019-05-22T02:30:36.511Z,22.27
2019-05-22T02:33:10.648Z,22.55
2019-05-22T02:35:45.367Z,22.17
2019-05-22T02:38:19.673Z,24.02
2019-05-22T02:40:55.914Z,23.52
2019-05-22T02:43:30.468Z,22.55
2019-05-22T02:46:04.694Z,22.85
2019-05-22T02:48:42.275Z,22.95
2019-05-22T02:51:14.767Z,23.60
2019-05-22T02:56:22.794Z,23.27
2019-05-22T02:58:58.181Z,24.00
2019-05-22T03:01:32.571Z,24.37
2019-05-22T03:04:08.115Z,23.22
2019-05-22T03:06:42.137Z,23.80
2019-05-22T03:11:57.868Z,21.95
2019-05-22T03:14:33.312Z,23.45
2019-05-22T03:17:14.491Z,24.67
2019-05-22T03:19:48.781Z,23.55
2019-05-22T03:22:30.065Z,24.63
2019-05-22T03:25:08.172Z,23.62
2019-05-22T03:27:45.061Z,22.87
2019-05-22T03:30:32.905Z,23.07
2019-05-22T03:33:09.554Z,23.07
2019-05-22T03:35:47.852Z,23.07
2019-05-22T03:38:23.457Z,23.65
2019-05-22T03:40:58.098Z,23.52
2019-05-22T03:43:32.383Z,23.52
2019-05-22T03:46:37.297Z,23.07
2019-05-22T03:49:29.336Z,22.80
2019-05-22T03:51:52.695Z,21.50
2019-05-22T03:54:27.150Z,21.20
2019-05-22T03:57:01.594Z,21.45
2019-05-22T03:59:36.089Z,21.90
2019-05-22T04:02:11.045Z,20.85
2019-05-22T04:04:45.529Z,20.77
2019-05-22T04:07:20.972Z,20.37
2019-05-22T04:09:55.440Z,19.75
2019-05-22T04:12:29.315Z,19.82
2019-05-22T04:15:04.903Z,19.98
2019-05-22T04:17:39.959Z,20.27
2019-05-22T04:20:16.712Z,20.43
2019-05-22T04:22:52.337Z,19.15
2019-05-22T04:25:26.925Z,17.62
2019-05-22T04:28:02.768Z,18.52
2019-05-22T04:30:38.612Z,17.55
2019-05-22T04:33:12.908Z,16.48
2019-05-22T04:35:47.277Z,17.07
2019-05-22T04:38:22.044Z,15.48
2019-05-22T04:40:58.303Z,15.95
2019-05-22T04:43:34.318Z,13.08
2019-05-22T04:46:10.093Z,13.28
2019-05-22T04:48:46.000Z,11.93
2019-05-22T04:51:26.821Z,14.43
2019-05-22T04:54:00.715Z,12.33
2019-05-22T04:59:09.245Z,11.97
2019-05-22T05:01:43.390Z,10.88
2019-05-22T05:04:18.218Z,10.10
2019-05-22T05:06:52.549Z,10.00
2019-05-22T05:09:26.418Z,10.28
2019-05-22T05:14:34.513Z,9.55
2019-05-22T05:17:09.486Z,9.83
2019-05-22T05:19:43.425Z,8.90
2019-05-22T05:22:22.799Z,8.53
2019-05-22T05:24:56.908Z,8.70
2019-05-22T05:27:32.018Z,8.85
2019-05-22T05:30:07.931Z,8.70
2019-05-22T05:32:43.410Z,9.28
2019-05-22T05:35:20.527Z,8.85
2019-05-22T05:37:54.592Z,8.48
2019-05-22T05:40:38.814Z,8.33
2019-05-22T05:43:14.501Z,8.70
2019-05-22T05:45:50.235Z,7.97
2019-05-22T05:48:26.264Z,8.23
2019-05-22T05:51:08.912Z,8.50
2019-05-22T05:53:59.052Z,8.80
2019-05-22T05:56:33.976Z,7.80
2019-05-22T05:59:08.919Z,7.65
2019-05-22T06:01:48.331Z,8.85
2019-05-22T06:04:34.562Z,7.85
2019-05-22T06:07:19.395Z,8.63
2019-05-22T06:09:58.920Z,8.03
2019-05-22T06:12:33.016Z,8.40
2019-05-22T06:15:08.244Z,8.68
2019-05-22T06:18:18.364Z,8.25
2019-05-22T06:21:03.388Z,9.05
2019-05-22T06:23:33.509Z,9.10
2019-05-22T06:26:10.136Z,8.35
2019-05-22T06:28:44.881Z,8.25
2019-05-22T06:31:24.234Z,8.95
2019-05-22T06:33:58.899Z,7.60
2019-05-22T06:36:33.460Z,8.00
2019-05-22T06:39:10.336Z,8.35
2019-05-22T06:41:45.501Z,7.75
2019-05-22T06:44:37.103Z,7.47
2019-05-22T06:47:13.671Z,7.08
2019-05-22T06:49:49.498Z,7.17
2019-05-22T06:52:23.888Z,7.47
2019-05-22T06:54:58.591Z,7.08
2019-05-22T06:57:34.506Z,6.97
2019-05-22T07:00:14.093Z,6.85
2019-05-22T07:02:47.467Z,6.35
2019-05-22T07:05:23.240Z,7.22
2019-05-22T07:07:57.602Z,6.30
2019-05-22T07:10:33.038Z,7.20
2019-05-22T07:13:09.802Z,6.42
2019-05-22T07:15:44.570Z,6.08
2019-05-22T07:18:20.168Z,5.75
2019-05-22T07:20:55.158Z,5.90
2019-05-22T07:23:29.721Z,6.03
2019-05-22T07:26:06.429Z,6.10
2019-05-22T07:28:42.484Z,6.12
2019-05-22T07:31:16.890Z,5.70
2019-05-22T07:33:53.203Z,4.60
2019-05-22T07:36:28.743Z,5.40
2019-05-22T07:39:04.618Z,4.87
2019-05-22T07:41:39.216Z,5.22
2019-05-22T07:44:13.531Z,5.47
2019-05-22T07:46:48.684Z,5.50
2019-05-22T07:49:23.196Z,5.08
2019-05-22T07:52:01.562Z,5.20
2019-05-22T07:54:34.516Z,4.87
2019-05-22T07:57:10.077Z,5.00
2019-05-22T07:59:44.234Z,4.97
2019-05-22T08:02:19.342Z,5.65
2019-05-22T08:04:53.838Z,5.17
2019-05-22T08:07:29.052Z,5.30
2019-05-22T08:10:03.771Z,5.25
2019-05-22T08:12:38.560Z,5.20
2019-05-22T08:15:13.544Z,5.47
2019-05-22T08:17:48.497Z,5.85
2019-05-22T08:20:22.892Z,5.62
2019-05-22T08:22:58.698Z,6.00
2019-05-22T08:25:33.536Z,5.42
2019-05-22T08:28:08.568Z,5.10
2019-05-22T08:30:42.726Z,5.37
2019-05-22T08:33:17.884Z,5.20
2019-05-22T08:35:52.940Z,5.17
2019-05-22T08:38:35.028Z,4.65
2019-05-22T08:41:10.025Z,4.65
2019-05-22T08:44:11.587Z,5.35
2019-05-22T08:46:20.361Z,5.15
2019-05-22T08:48:54.562Z,5.00
2019-05-22T08:51:28.668Z,5.10
2019-05-22T08:54:05.922Z,5.30
2019-05-22T08:56:40.892Z,5.15
2019-05-22T08:59:19.337Z,4.50
2019-05-22T09:01:51.108Z,5.00
2019-05-22T09:04:25.470Z,5.22
2019-05-22T09:06:59.655Z,4.83
2019-05-22T09:09:33.940Z,4.85
2019-05-22T09:12:09.107Z,4.83
2019-05-22T09:14:43.206Z,4.42
2019-05-22T09:17:17.841Z,4.42
2019-05-22T09:19:52.391Z,4.35
2019-05-22T09:22:40.326Z,3.67
2019-05-22T09:25:03.423Z,4.17
2019-05-22T09:27:38.055Z,3.20
2019-05-22T09:30:13.387Z,3.25
2019-05-22T09:32:47.751Z,3.67
2019-05-22T09:35:22.117Z,3.77
2019-05-22T09:37:56.593Z,4.00
2019-05-22T09:40:32.676Z,4.05
2019-05-22T09:43:06.805Z,4.22
2019-05-22T09:45:41.048Z,3.87
2019-05-22T09:48:15.951Z,4.10
2019-05-22T09:50:50.748Z,3.92
2019-05-22T09:53:25.108Z,4.35
2019-05-22T09:55:59.135Z,4.42
2019-05-22T09:58:33.276Z,4.62
2019-05-22T10:01:11.518Z,5.00
2019-05-22T10:03:43.507Z,4.95
2019-05-22T10:06:21.514Z,4.40
2019-05-22T10:08:53.803Z,4.33
2019-05-22T10:11:28.406Z,4.08
2019-05-22T10:14:03.447Z,4.92
2019-05-22T10:16:38.282Z,4.87
2019-05-22T10:19:12.820Z,4.30
2019-05-22T10:21:48.854Z,4.50
2019-05-22T10:24:23.467Z,5.10
2019-05-22T10:26:57.426Z,4.95
2019-05-22T10:29:32.485Z,4.50
2019-05-22T10:32:08.508Z,4.90
2019-05-22T10:34:43.006Z,4.65
2019-05-22T10:37:17.034Z,5.00
2019-05-22T10:39:51.726Z,5.08
2019-05-22T10:42:26.170Z,5.55
2019-05-22T10:45:00.966Z,5.95
2019-05-22T10:47:35.210Z,5.72
2019-05-22T10:50:10.475Z,5.80
2019-05-22T10:52:44.454Z,5.67
2019-05-22T10:55:20.136Z,6.00
2019-05-22T10:57:54.374Z,6.33
2019-05-22T11:00:29.120Z,6.28
2019-05-22T11:03:03.620Z,6.67
2019-05-22T11:05:37.557Z,5.72
2019-05-22T11:08:11.848Z,5.97
2019-05-22T11:10:46.393Z,6.40
2019-05-22T11:13:21.100Z,6.10
2019-05-22T11:15:56.325Z,5.33
2019-05-22T11:18:30.410Z,5.37
2019-05-22T11:21:05.036Z,5.40
2019-05-22T11:23:51.178Z,4.90
2019-05-22T11:26:15.968Z,5.40
2019-05-22T11:31:23.866Z,5.43
2019-05-22T11:33:57.758Z,7.12
2019-05-22T11:39:09.120Z,5.10
2019-05-22T11:41:44.196Z,5.55
2019-05-22T11:44:18.322Z,4.95
2019-05-22T11:46:52.248Z,4.87
2019-05-22T11:51:59.739Z,3.85
2019-05-22T11:54:34.736Z,4.12
2019-05-22T11:57:09.030Z,4.45
2019-05-22T11:59:44.292Z,4.60
2019-05-22T12:02:18.525Z,4.40
2019-05-22T12:04:52.598Z,3.83
2019-05-22T12:07:27.880Z,5.00
2019-05-22T12:10:02.668Z,3.65
2019-05-22T12:12:37.607Z,3.80
2019-05-22T12:15:14.489Z,4.20
2019-05-22T12:17:49.270Z,4.72
2019-05-22T12:20:24.976Z,3.05
2019-05-22T12:23:00.009Z,4.45
2019-05-22T12:25:34.005Z,4.30
2019-05-22T12:30:41.738Z,4.58
2019-05-22T12:33:16.305Z,4.50
2019-05-22T12:35:51.679Z,4.30
2019-05-22T12:38:27.276Z,4.50
2019-05-22T12:41:03.359Z,3.58
2019-05-22T12:43:37.942Z,3.65
2019-05-22T12:46:13.568Z,4.47
2019-05-22T12:48:47.790Z,4.30
2019-05-22T12:51:22.441Z,4.00
2019-05-22T12:53:56.386Z,4.28
2019-05-22T12:56:31.756Z,4.40
2019-05-22T12:59:07.592Z,3.95
2019-05-22T13:01:42.156Z,4.83
2019-05-22T13:04:16.886Z,5.30
2019-05-22T13:06:51.590Z,4.33
2019-05-22T13:09:26.270Z,4.12
2019-05-22T13:12:00.739Z,5.05
2019-05-22T13:14:35.812Z,4.08
2019-05-22T13:17:13.323Z,4.03
2019-05-22T13:19:47.811Z,4.87
2019-05-22T13:22:24.526Z,4.50
2019-05-22T13:24:58.966Z,4.90
2019-05-22T13:27:34.971Z,4.50
2019-05-22T13:30:11.168Z,3.70
2019-05-22T13:32:46.044Z,3.40
2019-05-22T13:35:21.251Z,3.55
2019-05-22T13:37:56.957Z,3.75
2019-05-22T13:40:32.719Z,3.45
2019-05-22T13:43:06.638Z,3.58
2019-05-22T13:45:40.872Z,3.60
2019-05-22T13:48:15.355Z,3.83
2019-05-22T13:50:49.864Z,3.75
2019-05-22T13:53:24.457Z,3.80
2019-05-22T13:55:59.132Z,4.10
2019-05-22T13:58:34.770Z,3.90
2019-05-22T14:01:10.865Z,4.62
2019-05-22T14:03:45.197Z,3.40
2019-05-22T14:06:20.052Z,4.35
2019-05-22T14:08:54.421Z,4.53
2019-05-22T14:11:29.276Z,4.37
2019-05-22T14:14:03.654Z,4.70
2019-05-22T14:16:48.832Z,4.17
2019-05-22T14:19:14.386Z,4.10
2019-05-22T14:21:51.741Z,4.10
2019-05-22T14:24:24.513Z,3.80
2019-05-22T14:26:58.985Z,3.90
2019-05-22T14:29:34.456Z,4.40
2019-05-22T14:32:10.313Z,4.60
2019-05-22T14:34:45.212Z,4.30
2019-05-22T14:37:19.538Z,4.42
2019-05-22T14:39:53.949Z,3.90
2019-05-22T14:42:28.384Z,3.80
2019-05-22T14:45:02.551Z,3.70
2019-05-22T14:47:36.688Z,3.60
2019-05-22T14:50:13.036Z,4.00
2019-05-22T14:52:47.331Z,3.90
2019-05-22T14:55:22.026Z,4.25
2019-05-22T14:57:57.041Z,4.03
2019-05-22T15:00:33.202Z,4.33
2019-05-22T15:03:07.621Z,4.33
2019-05-22T15:05:41.759Z,4.72
2019-05-22T15:08:15.858Z,4.70
2019-05-22T15:13:24.221Z,4.67
2019-05-22T15:15:58.513Z,4.70
2019-05-22T15:18:32.604Z,4.78
2019-05-22T15:23:46.976Z,5.33
2019-05-22T15:26:21.176Z,5.75
2019-05-22T15:28:56.718Z,5.67
2019-05-22T15:34:25.897Z,5.35
2019-05-22T15:37:00.631Z,5.47
2019-05-22T15:39:36.118Z,5.60
2019-05-22T15:42:13.235Z,5.65
2019-05-22T15:44:47.369Z,5.17
2019-05-22T15:49:55.986Z,5.83
2019-05-22T15:52:31.827Z,6.85
2019-05-22T15:55:08.559Z,5.97
2019-05-22T15:57:43.524Z,6.65
2019-05-22T16:00:19.662Z,6.58
2019-05-22T16:02:54.494Z,6.30
2019-05-22T16:05:31.354Z,6.42
2019-05-22T16:08:07.195Z,23.30
2019-05-22T16:10:43.320Z,10.20
2019-05-22T16:13:21.088Z,7.37
2019-05-22T16:15:57.346Z,7.58
2019-05-22T16:18:33.465Z,7.22
2019-05-22T16:21:11.560Z,7.35
2019-05-22T16:23:47.176Z,7.83
2019-05-22T16:26:23.579Z,8.33
2019-05-22T16:28:58.873Z,7.15
2019-05-22T16:31:33.834Z,7.40
2019-05-22T16:34:08.333Z,7.45
2019-05-22T16:36:45.266Z,7.80
2019-05-22T16:39:19.540Z,7.95
2019-05-22T16:41:56.798Z,7.30
2019-05-22T16:44:31.483Z,10.68
2019-05-22T16:47:07.103Z,7.42
2019-05-22T16:49:41.607Z,7.30
2019-05-22T16:52:17.968Z,7.20
2019-05-22T16:54:52.650Z,7.03
2019-05-22T16:57:27.663Z,7.58
2019-05-22T17:00:02.509Z,7.40
2019-05-22T17:02:38.004Z,7.78
2019-05-22T17:05:14.741Z,7.90
2019-05-22T17:07:49.742Z,7.87
2019-05-22T17:10:24.929Z,7.70
2019-05-22T17:13:00.554Z,7.55
2019-05-22T17:15:37.498Z,8.33
2019-05-22T17:18:11.803Z,7.85
2019-05-22T17:20:47.730Z,7.03
2019-05-22T17:23:21.838Z,6.83
2019-05-22T17:31:04.252Z,6.05
2019-05-22T17:33:38.173Z,6.40
2019-05-22T17:36:12.231Z,6.58
2019-05-22T17:38:47.344Z,6.30
2019-05-22T17:41:22.751Z,6.72
2019-05-22T17:43:57.042Z,6.40
2019-05-22T17:46:32.616Z,6.65
2019-05-22T17:49:06.626Z,7.00
2019-05-22T17:51:40.890Z,6.95
2019-05-22T17:54:15.441Z,10.38
2019-05-22T17:56:49.578Z,7.83
2019-05-22T17:59:23.850Z,6.87
2019-05-22T18:01:58.314Z,7.15
2019-05-22T18:04:32.285Z,7.55
2019-05-22T18:09:39.970Z,6.75
2019-05-22T18:12:14.740Z,7.58
2019-05-22T18:14:49.275Z,7.17
2019-05-22T18:17:24.356Z,7.67
2019-05-22T18:19:58.606Z,8.10
2019-05-22T18:22:33.305Z,9.55
2019-05-22T18:25:08.656Z,9.33
2019-05-22T18:27:43.093Z,12.73
2019-05-22T18:30:18.490Z,12.70
2019-05-22T18:32:52.683Z,13.60
2019-05-22T18:35:26.907Z,11.65
2019-05-22T18:38:04.634Z,12.30
2019-05-22T18:40:37.183Z,12.47
2019-05-22T18:43:11.669Z,11.93
2019-05-22T18:45:47.167Z,11.93
2019-05-22T18:48:21.229Z,12.10
2019-05-22T18:53:29.663Z,11.45
2019-05-22T18:56:04.056Z,11.40
2019-05-22T18:58:38.196Z,11.08
2019-05-22T19:01:16.051Z,10.80
2019-05-22T19:03:48.267Z,12.10
2019-05-22T19:06:30.434Z,12.75
2019-05-22T19:08:59.480Z,11.40
2019-05-22T19:11:33.683Z,12.60
2019-05-22T19:14:07.725Z,12.50
2019-05-22T19:19:15.253Z,13.93
2019-05-22T19:21:49.425Z,26.27
2019-05-22T19:26:56.680Z,20.65
2019-05-22T19:29:30.817Z,17.98
2019-05-22T19:32:04.957Z,19.15
2019-05-22T19:37:12.270Z,15.65
2019-05-22T19:39:46.487Z,16.12
2019-05-22T19:42:20.458Z,15.50
2019-05-22T19:44:54.475Z,17.95
2019-05-22T19:47:28.572Z,17.57
2019-05-22T19:50:03.073Z,18.02
2019-05-22T19:52:41.719Z,18.60
2019-05-22T19:55:17.238Z,18.10
2019-05-22T19:57:51.880Z,18.98
2019-05-22T20:00:26.720Z,17.37
2019-05-22T20:03:01.860Z,17.12
2019-05-22T20:05:36.466Z,17.02
2019-05-22T20:08:11.464Z,17.87
2019-05-22T20:10:46.017Z,18.73
2019-05-22T20:13:22.270Z,20.95
2019-05-22T20:15:56.099Z,21.23
2019-05-22T20:18:30.332Z,20.77
2019-05-22T20:21:04.824Z,21.48
2019-05-22T20:23:38.882Z,21.82
2019-05-22T20:28:47.142Z,23.02
2019-05-22T20:31:21.118Z,22.80
2019-05-22T20:33:55.052Z,23.07
2019-05-22T20:36:29.821Z,23.12
2019-05-22T20:39:07.134Z,23.27
2019-05-22T20:41:41.068Z,23.80
2019-05-22T20:44:16.698Z,24.10
2019-05-22T20:46:52.140Z,25.12
2019-05-22T20:49:26.844Z,24.67
2019-05-22T20:52:01.978Z,24.67
2019-05-22T20:54:36.873Z,25.82
2019-05-22T20:57:12.698Z,27.15
2019-05-22T20:59:48.182Z,28.42
2019-05-22T21:02:22.272Z,30.12
2019-05-22T21:07:38.520Z,29.50
2019-05-22T21:10:13.119Z,30.55
2019-05-22T21:12:49.029Z,30.08
2019-05-22T21:15:23.188Z,32.73
2019-05-22T21:17:57.030Z,33.08
2019-05-22T21:20:32.556Z,33.48
2019-05-22T21:23:07.230Z,32.93
2019-05-22T21:25:41.733Z,32.00
2019-05-22T21:28:16.595Z,33.33
2019-05-22T21:30:52.680Z,32.95
2019-05-22T21:33:28.332Z,32.42
2019-05-22T21:36:04.098Z,33.00
2019-05-22T21:38:38.878Z,33.88
2019-05-22T21:41:13.488Z,32.55
2019-05-22T21:43:47.983Z,33.98
2019-05-22T21:46:22.743Z,33.30
2019-05-22T21:48:58.118Z,32.67
2019-05-22T21:51:32.724Z,33.63
2019-05-22T21:54:06.871Z,33.98
2019-05-22T21:56:42.645Z,35.15
2019-05-22T21:59:16.979Z,33.95
2019-05-22T22:01:53.356Z,34.38
2019-05-22T22:04:29.597Z,35.48
2019-05-22T22:07:04.718Z,35.33
2019-05-22T22:09:40.236Z,35.05
2019-05-22T22:12:17.497Z,36.05
2019-05-22T22:14:51.702Z,36.50
2019-05-22T22:17:27.259Z,36.80
2019-05-22T22:20:02.346Z,36.35
2019-05-22T22:22:37.016Z,38.10
2019-05-22T22:25:13.282Z,37.58
2019-05-22T22:27:48.146Z,38.05
2019-05-22T22:30:41.989Z,37.08
2019-05-22T22:33:20.299Z,37.13
2019-05-22T22:35:55.944Z,38.10
2019-05-22T22:38:30.807Z,36.50
2019-05-22T22:41:07.353Z,35.35
2019-05-22T22:43:43.277Z,33.05
2019-05-22T22:46:21.368Z,33.80
2019-05-22T22:48:57.072Z,32.13
2019-05-22T22:51:32.129Z,31.65
2019-05-22T22:57:02.507Z,33.73
2019-05-22T22:59:36.516Z,34.45
2019-05-22T23:04:48.949Z,35.60
2019-05-22T23:07:23.848Z,36.20
2019-05-22T23:09:59.154Z,34.27
2019-05-22T23:12:35.961Z,32.98
2019-05-22T23:15:11.532Z,34.63
2019-05-22T23:17:47.487Z,35.17
2019-05-22T23:20:20.048Z,32.93
2019-05-22T23:22:52.675Z,33.63
2019-05-22T23:25:26.702Z,32.35
2019-05-22T23:28:02.185Z,31.52
2019-05-22T23:30:37.322Z,30.30
2019-05-22T23:33:11.214Z,26.37
2019-05-22T23:35:46.221Z,26.55
2019-05-22T23:38:20.994Z,25.68
2019-05-22T23:40:56.604Z,21.15
2019-05-22T23:43:31.490Z,21.05
2019-05-22T23:46:08.680Z,21.30
2019-05-22T23:48:44.118Z,21.23
2019-05-22T23:51:19.015Z,20.55
2019-05-22T23:53:54.256Z,20.08
2019-05-22T23:56:28.227Z,20.90
2019-05-22T23:59:02.234Z,20.48
